Zaandam, Netherlands
Current Conditions -  °F | °C
As of 10:25 PM on Saturday 25 Oct 2014 (Local Time) from EHAM Reporting Station
Few Clouds Few Clouds  
Wind Chill: 45°   Ceiling: Unl
Heat Index: 48°   Visibility: 6mi
Dew Point: 45°   Wind: 8mph
Humidity: 87%   Direction: 200°SSW
Pressure: 30.15"   Gusts: NA
Location:  52.44°N, 4.83°E
Report Text: EHAM 252025Z 20007KT 9999 FEW032 09/07 Q1021 NOSIG
Loading
Personal Weather Stations






























Interactive Weather Map
Tropical Storm Tracking
New forecast layout! Learn more

10-Day Weather Forecast

Advertisements
Track Severe Weather on mobile